Time;durP1;ratioP1;P1;durP2;ratioP2;P2;SDS_P1;SDS_P2;PMS_P1;PMS_P2;Temp;Humidity;BMP_temperature;BMP_pressure;BME280_temperature;BME280_humidity;BME280_pressure;Samples;Min_cycle;Max_cycle;Signal;HPM_P1;HPM_P2
2023/10/20 00:01:18;;;;;;;0.20;0.20;;;15.70;99.90;;;;;;5059424;28;20037;-82
2023/10/20 00:03:44;;;;;;;0.73;0.60;;;15.70;99.90;;;;;;5059982;28;20071;-82
2023/10/20 00:06:10;;;;;;;0.32;0.32;;;15.70;99.90;;;;;;5060477;28;20020;-83
2023/10/20 00:08:36;;;;;;;0.40;0.40;;;15.70;99.90;;;;;;5058943;28;20017;-82
2023/10/20 00:11:03;;;;;;;0.30;0.30;;;15.70;99.90;;;;;;5042001;28;20403;-82
2023/10/20 00:13:29;;;;;;;0.40;0.40;;;15.70;99.90;;;;;;5041474;28;20037;-83
2023/10/20 00:15:55;;;;;;;0.30;0.30;;;15.70;99.90;;;;;;5041837;28;20449;-82
2023/10/20 00:18:23;;;;;;;0.40;0.40;;;15.70;99.90;;;;;;5061338;28;20086;-82
2023/10/20 00:20:49;;;;;;;0.32;0.32;;;15.70;99.90;;;;;;5058717;28;20024;-82
2023/10/20 00:23:14;;;;;;;0.40;0.40;;;15.70;99.90;;;;;;5061600;28;20384;-83
2023/10/20 00:25:41;;;;;;;0.40;0.40;;;15.70;99.90;;;;;;5041897;28;20013;-82
2023/10/20 00:28:09;;;;;;;0.47;0.47;;;15.70;99.90;;;;;;5041164;28;20488;-83
2023/10/20 00:30:35;;;;;;;0.43;0.43;;;15.70;99.90;;;;;;5039229;28;20028;-83
2023/10/20 00:33:01;;;;;;;0.47;0.47;;;15.70;99.90;;;;;;5043186;28;20035;-83
2023/10/20 00:35:27;;;;;;;0.45;0.45;;;15.70;99.90;;;;;;5059902;28;20025;-82
2023/10/20 00:37:53;;;;;;;0.68;0.68;;;15.70;99.90;;;;;;5040037;28;20375;-83
2023/10/20 00:40:20;;;;;;;0.30;0.30;;;15.70;99.90;;;;;;5059419;28;20028;-82
2023/10/20 00:42:45;;;;;;;0.65;0.65;;;15.70;99.90;;;;;;5039755;28;20054;-83
2023/10/20 00:45:11;;;;;;;0.50;0.50;;;15.70;99.90;;;;;;5043099;28;20020;-82
2023/10/20 00:47:38;;;;;;;0.45;0.45;;;15.70;99.90;;;;;;5046199;28;20035;-82
2023/10/20 00:50:11;;;;;;;0.20;0.20;;;15.60;99.90;;;;;;5061234;28;20036;-83
2023/10/20 00:52:37;;;;;;;0.55;0.55;;;15.60;99.90;;;;;;5058949;28;20028;-83
2023/10/20 00:55:07;;;;;;;0.30;0.30;;;15.60;99.90;;;;;;5056412;28;20467;-83
2023/10/20 00:57:34;;;;;;;0.20;0.20;;;15.60;99.90;;;;;;5050670;28;20246;-82
2023/10/20 01:00:00;;;;;;;0.30;0.30;;;15.60;99.90;;;;;;5039897;28;20377;-82
2023/10/20 01:02:25;;;;;;;0.35;0.35;;;15.60;99.90;;;;;;5043715;28;20031;-82
2023/10/20 01:04:51;;;;;;;0.30;0.30;;;15.60;99.90;;;;;;5058616;28;20029;-83
2023/10/20 01:07:17;;;;;;;0.55;0.55;;;15.60;99.90;;;;;;5060341;28;20029;-82
2023/10/20 01:09:43;;;;;;;0.40;0.40;;;15.50;99.90;;;;;;5059841;28;20040;-82
2023/10/20 01:12:09;;;;;;;4.20;1.05;;;15.50;99.90;;;;;;5058138;28;20599;-83
2023/10/20 01:14:35;;;;;;;0.60;0.60;;;15.50;99.90;;;;;;5057085;28;20190;-82
2023/10/20 01:17:01;;;;;;;0.70;0.70;;;15.50;99.90;;;;;;5041949;28;20496;-82
2023/10/20 01:19:27;;;;;;;0.77;0.77;;;15.50;99.90;;;;;;5037518;28;20218;-82
2023/10/20 01:21:53;;;;;;;0.40;0.40;;;15.40;99.90;;;;;;5059442;28;20874;-82
2023/10/20 01:24:19;;;;;;;0.40;0.40;;;15.40;99.90;;;;;;5058033;28;20032;-83
2023/10/20 01:26:44;;;;;;;0.55;0.55;;;15.40;99.90;;;;;;5059050;28;20035;-83
2023/10/20 01:29:12;;;;;;;0.70;0.60;;;15.40;99.90;;;;;;5060430;28;20032;-83
2023/10/20 01:31:38;;;;;;;0.75;0.75;;;15.40;99.90;;;;;;5057908;28;20028;-82
2023/10/20 01:34:05;;;;;;;0.30;0.30;;;15.40;99.90;;;;;;5042475;28;20129;-82
2023/10/20 01:36:30;;;;;;;0.85;0.82;;;15.40;99.90;;;;;;5072743;28;20171;-83
2023/10/20 01:38:56;;;;;;;0.47;0.45;;;15.40;99.90;;;;;;5090874;28;20021;-83
2023/10/20 01:41:23;;;;;;;0.57;0.57;;;15.50;99.90;;;;;;5089857;28;20013;-84
2023/10/20 01:43:48;;;;;;;0.80;0.80;;;15.50;99.90;;;;;;5080030;28;20107;-82
2023/10/20 01:46:14;;;;;;;0.47;0.47;;;15.50;99.90;;;;;;5064164;28;20119;-83
2023/10/20 01:48:39;;;;;;;0.43;0.43;;;15.50;99.90;;;;;;5049007;28;20017;-82
2023/10/20 01:51:05;;;;;;;0.80;0.80;;;15.50;99.90;;;;;;5062205;28;20061;-83
2023/10/20 01:53:31;;;;;;;0.50;0.50;;;15.50;99.90;;;;;;5043732;28;20055;-83
2023/10/20 01:55:56;;;;;;;0.45;0.45;;;15.50;99.90;;;;;;5045022;28;20103;-82
2023/10/20 01:58:22;;;;;;;0.50;0.50;;;15.50;99.90;;;;;;5061858;28;20140;-82
2023/10/20 02:00:51;;;;;;;0.50;0.50;;;15.50;99.90;;;;;;5045960;28;20051;-83
2023/10/20 02:03:17;;;;;;;0.32;0.32;;;15.50;99.90;;;;;;5062767;28;20086;-82
2023/10/20 02:05:43;;;;;;;0.50;0.50;;;15.50;99.90;;;;;;5043450;28;20057;-82
2023/10/20 02:08:09;;;;;;;0.40;0.40;;;15.50;99.90;;;;;;5045709;28;20036;-83
2023/10/20 02:10:35;;;;;;;0.50;0.50;;;15.50;99.90;;;;;;5061715;28;20043;-81
2023/10/20 02:13:02;;;;;;;1.27;1.27;;;15.50;99.90;;;;;;5045970;28;20020;-82
2023/10/20 02:15:28;;;;;;;0.85;0.50;;;15.50;99.90;;;;;;5046020;28;20028;-82
2023/10/20 02:17:53;;;;;;;0.60;0.60;;;15.50;99.90;;;;;;5046212;28;20377;-82
2023/10/20 02:20:22;;;;;;;0.60;0.60;;;15.50;99.90;;;;;;5053690;28;20297;-83
2023/10/20 02:22:50;;;;;;;0.65;0.65;;;15.60;99.90;;;;;;5038980;28;20202;-83
2023/10/20 02:25:16;;;;;;;0.50;0.50;;;15.60;99.90;;;;;;5060156;28;20070;-83
2023/10/20 02:27:42;;;;;;;0.47;0.47;;;15.60;99.90;;;;;;5059626;28;20403;-83
2023/10/20 02:30:12;;;;;;;0.40;0.40;;;15.50;99.90;;;;;;5062378;28;20154;-83
2023/10/20 02:32:40;;;;;;;0.43;0.43;;;15.60;99.90;;;;;;5043979;28;20021;-82
2023/10/20 02:35:08;;;;;;;0.73;0.73;;;15.60;99.90;;;;;;5061815;28;20016;-83
2023/10/20 02:37:34;;;;;;;0.40;0.40;;;15.60;99.90;;;;;;5049531;28;20052;-82
2023/10/20 02:39:59;;;;;;;0.63;0.63;;;15.60;99.90;;;;;;5060689;28;20075;-82
2023/10/20 02:42:25;;;;;;;0.93;0.93;;;15.60;99.90;;;;;;5061391;28;20511;-83
2023/10/20 02:44:50;;;;;;;0.20;0.20;;;15.50;99.90;;;;;;5061698;28;20031;-83
2023/10/20 02:47:19;;;;;;;1.25;1.20;;;15.50;99.90;;;;;;5062138;28;20088;-83
2023/10/20 02:49:45;;;;;;;0.93;0.93;;;15.50;99.90;;;;;;5062369;28;20099;-83
2023/10/20 02:52:13;;;;;;;0.32;0.32;;;15.50;99.90;;;;;;5042860;28;20047;-82
2023/10/20 02:54:38;;;;;;;0.52;0.52;;;15.50;99.90;;;;;;5061806;28;20556;-83
2023/10/20 02:57:05;;;;;;;0.70;0.70;;;15.50;99.90;;;;;;5061437;28;20111;-82
2023/10/20 02:59:31;;;;;;;0.60;0.60;;;15.50;99.90;;;;;;5060118;28;20042;-83
2023/10/20 03:01:57;;;;;;;0.60;0.60;;;15.50;99.90;;;;;;5062553;28;20028;-85
2023/10/20 03:04:22;;;;;;;0.82;0.82;;;15.50;99.90;;;;;;5044062;28;20039;-82
2023/10/20 03:06:48;;;;;;;0.85;0.85;;;15.60;99.90;;;;;;5040433;28;20077;-83
2023/10/20 03:09:13;;;;;;;0.70;0.47;;;15.60;99.90;;;;;;5045238;28;20016;-82
2023/10/20 03:11:40;;;;;;;0.65;0.63;;;15.60;99.90;;;;;;5043346;28;20071;-83
2023/10/20 03:14:06;;;;;;;0.38;0.38;;;15.60;99.90;;;;;;5043157;28;20059;-83
2023/10/20 03:16:33;;;;;;;1.67;0.50;;;15.60;99.90;;;;;;5043837;28;20020;-83
2023/10/20 03:18:58;;;;;;;1.75;1.65;;;15.60;99.90;;;;;;5046768;28;20025;-83
2023/10/20 03:21:24;;;;;;;0.40;0.40;;;15.60;99.90;;;;;;5049174;28;20052;-83
2023/10/20 03:23:50;;;;;;;0.60;0.60;;;15.50;99.90;;;;;;5040399;28;20024;-83
2023/10/20 03:26:15;;;;;;;0.80;0.80;;;15.50;99.90;;;;;;5042665;28;20024;-83
2023/10/20 03:28:41;;;;;;;0.60;0.60;;;15.50;99.90;;;;;;5060740;28;20020;-83
2023/10/20 03:31:07;;;;;;;1.67;0.60;;;15.50;99.90;;;;;;5060321;28;20034;-83
2023/10/20 03:33:33;;;;;;;0.40;0.40;;;15.50;99.90;;;;;;5060937;28;20116;-83
2023/10/20 03:36:04;;;;;;;1.00;0.50;;;15.50;99.90;;;;;;5039065;28;20108;-83
2023/10/20 03:38:31;;;;;;;0.52;0.52;;;15.50;99.90;;;;;;5063002;28;20107;-83
2023/10/20 03:41:06;;;;;;;0.90;0.82;;;15.50;99.90;;;;;;5058755;28;20023;-83
2023/10/20 03:43:34;;;;;;;0.57;0.57;;;15.50;99.90;;;;;;5061462;28;20040;-82
2023/10/20 03:46:00;;;;;;;0.47;0.47;;;15.50;99.90;;;;;;5059205;28;20054;-83
2023/10/20 03:48:29;;;;;;;0.75;0.75;;;15.50;99.90;;;;;;5060417;28;20086;-82
2023/10/20 03:50:55;;;;;;;0.73;0.73;;;15.50;99.90;;;;;;5060928;28;20048;-83
2023/10/20 03:53:27;;;;;;;0.47;0.47;;;15.50;99.90;;;;;;5045406;28;20102;-83
2023/10/20 03:56:04;;;;;;;0.45;0.32;;;15.50;99.90;;;;;;5061729;28;20056;-83
2023/10/20 03:58:34;;;;;;;0.55;0.55;;;15.50;99.90;;;;;;5040137;28;20033;-82
2023/10/20 04:01:02;;;;;;;1.27;0.80;;;15.50;99.90;;;;;;5044156;28;20098;-83
2023/10/20 04:03:31;;;;;;;0.73;0.73;;;15.50;99.90;;;;;;5058155;28;20040;-83
2023/10/20 04:05:57;;;;;;;0.70;0.70;;;15.50;99.90;;;;;;5043087;28;20024;-83
2023/10/20 04:08:24;;;;;;;0.80;0.55;;;15.50;99.90;;;;;;5059607;28;20017;-84
2023/10/20 04:10:56;;;;;;;0.60;0.60;;;15.50;99.90;;;;;;5041801;28;20032;-83
2023/10/20 04:13:23;;;;;;;;;;;15.50;99.90;;;;;;5043766;28;20036;-83
2023/10/20 04:15:49;;;;;;;0.52;0.52;;;15.50;99.90;;;;;;5042814;28;19909;-82
2023/10/20 04:18:15;;;;;;;0.50;0.50;;;15.50;99.90;;;;;;5042581;28;20024;-83
2023/10/20 04:20:42;;;;;;;0.75;0.75;;;15.50;99.90;;;;;;5040757;28;20028;-83
2023/10/20 04:23:08;;;;;;;0.57;0.57;;;15.50;99.90;;;;;;5060076;28;20043;-83
2023/10/20 04:25:52;;;;;;;1.60;0.40;;;15.50;99.90;;;;;;5059198;28;20024;-83
2023/10/20 04:28:28;;;;;;;1.15;1.15;;;15.50;99.90;;;;;;5043227;28;20024;-83
2023/10/20 05:08:17;;;;;;;1.05;1.02;;;15.60;99.90;;;;;;5057815;28;20119;-83
2023/10/20 05:10:47;;;;;;;0.70;0.70;;;15.60;99.90;;;;;;5061338;28;20047;-83
2023/10/20 05:13:16;;;;;;;1.55;0.43;;;15.50;99.90;;;;;;5062330;28;20016;-83
2023/10/20 05:15:43;;;;;;;0.40;0.40;;;15.60;99.90;;;;;;5061701;28;20295;-83
2023/10/20 05:18:12;;;;;;;1.05;0.60;;;15.50;99.90;;;;;;5045819;28;20070;-83
2023/10/20 05:20:40;;;;;;;0.57;0.57;;;15.50;99.90;;;;;;5037868;28;20019;-83
2023/10/20 05:23:06;;;;;;;4.22;0.50;;;15.50;99.90;;;;;;5047363;28;20055;-83
2023/10/20 05:25:32;;;;;;;0.43;0.43;;;15.50;99.90;;;;;;5050276;28;20024;-83
2023/10/20 05:28:00;;;;;;;0.50;0.50;;;15.50;99.90;;;;;;5073219;28;20115;-84
2023/10/20 05:30:26;;;;;;;0.68;0.63;;;15.50;99.90;;;;;;5072182;28;20024;-83
2023/10/20 05:32:52;;;;;;;0.50;0.50;;;15.50;99.90;;;;;;5072691;28;20023;-83
2023/10/20 05:35:17;;;;;;;0.40;0.40;;;15.50;99.90;;;;;;5048444;28;20025;-83
2023/10/20 05:37:43;;;;;;;0.52;0.52;;;15.50;99.90;;;;;;5062214;28;20032;-83
2023/10/20 05:40:09;;;;;;;0.82;0.82;;;15.50;99.90;;;;;;5044912;28;20028;-83
2023/10/20 05:42:34;;;;;;;0.40;0.40;;;15.40;99.90;;;;;;5062223;28;20078;-82
2023/10/20 05:45:09;;;;;;;0.68;0.68;;;15.50;99.90;;;;;;5043671;28;20031;-83
2023/10/20 05:47:35;;;;;;;0.45;0.45;;;15.40;99.90;;;;;;5044259;28;20059;-82
2023/10/20 05:50:03;;;;;;;0.57;0.57;;;15.40;99.90;;;;;;5061511;28;20150;-83
2023/10/20 05:52:29;;;;;;;1.08;0.60;;;15.30;99.90;;;;;;5041666;28;20035;-83
2023/10/20 05:54:56;;;;;;;0.63;0.63;;;15.30;99.90;;;;;;5043963;28;20020;-83
2023/10/20 05:57:22;;;;;;;0.43;0.43;;;15.30;99.90;;;;;;5045085;28;20032;-83
2023/10/20 05:59:48;;;;;;;0.95;0.95;;;15.30;99.90;;;;;;5046377;28;20020;-83
2023/10/20 06:02:14;;;;;;;1.15;1.15;;;15.30;99.90;;;;;;5062250;28;20043;-82
2023/10/20 06:04:40;;;;;;;1.10;0.98;;;15.30;99.90;;;;;;5044577;28;20032;-82
2023/10/20 06:07:06;;;;;;;0.90;0.90;;;15.30;99.90;;;;;;5045182;28;20025;-82
2023/10/20 06:09:32;;;;;;;0.60;0.60;;;15.30;99.90;;;;;;5060872;28;20250;-82
2023/10/20 06:11:59;;;;;;;0.47;0.47;;;15.20;99.90;;;;;;5045094;28;20068;-83
2023/10/20 06:14:25;;;;;;;0.45;0.45;;;15.20;99.90;;;;;;5060888;28;20309;-83
2023/10/20 06:16:51;;;;;;;0.82;0.82;;;15.20;99.90;;;;;;5046753;28;20078;-83
2023/10/20 06:19:18;;;;;;;0.50;0.50;;;15.20;99.90;;;;;;5061321;28;20024;-83
2023/10/20 06:21:45;;;;;;;0.40;0.40;;;15.20;99.90;;;;;;5061332;28;20058;-84
2023/10/20 06:24:11;;;;;;;0.40;0.40;;;15.20;99.90;;;;;;5044234;28;20028;-84
2023/10/20 06:26:37;;;;;;;0.40;0.40;;;15.20;99.90;;;;;;5044573;28;20400;-84
2023/10/20 06:29:02;;;;;;;0.80;0.60;;;15.10;99.90;;;;;;5047040;28;20035;-84
2023/10/20 06:36:34;;;;;;;0.50;0.50;;;15.10;99.90;;;;;;5063000;28;20204;-84
2023/10/20 06:39:00;;;;;;;0.30;0.30;;;15.10;99.90;;;;;;5044048;28;20028;-84
2023/10/20 06:41:28;;;;;;;0.50;0.50;;;15.00;99.90;;;;;;5044434;28;20036;-84
2023/10/20 06:43:53;;;;;;;0.50;0.50;;;15.00;99.90;;;;;;5063490;28;20380;-84
2023/10/20 06:46:24;;;;;;;0.40;0.40;;;14.90;99.90;;;;;;5043668;28;20104;-84
2023/10/20 06:48:50;;;;;;;0.52;0.52;;;14.90;99.90;;;;;;5046902;28;20036;-84
2023/10/20 06:51:16;;;;;;;0.20;0.20;;;14.80;99.90;;;;;;5044419;28;20028;-84
2023/10/20 06:53:41;;;;;;;0.40;0.40;;;14.80;99.90;;;;;;5059841;28;20039;-84
2023/10/20 06:56:09;;;;;;;0.45;0.45;;;14.70;99.90;;;;;;5062573;28;20107;-84
2023/10/20 06:58:34;;;;;;;0.60;0.60;;;14.70;99.90;;;;;;5045139;28;20047;-85
2023/10/20 07:01:05;;;;;;;0.32;0.32;;;14.70;99.90;;;;;;5045041;28;20017;-84
2023/10/20 07:03:32;;;;;;;0.45;0.45;;;14.60;99.90;;;;;;5053968;28;20115;-84
2023/10/20 07:05:59;;;;;;;0.65;0.65;;;14.60;99.90;;;;;;5061272;28;20071;-84
2023/10/20 07:08:25;;;;;;;0.47;0.47;;;14.60;99.90;;;;;;5043354;28;20028;-84
2023/10/20 07:10:50;;;;;;;0.20;0.20;;;14.60;99.90;;;;;;5045355;28;20231;-84
2023/10/20 07:13:17;;;;;;;0.88;0.88;;;14.60;99.90;;;;;;5048914;28;20040;-84
2023/10/20 07:15:43;;;;;;;0.32;0.32;;;14.50;99.90;;;;;;5071195;28;20355;-84
2023/10/20 07:18:11;;;;;;;0.20;0.20;;;14.50;99.90;;;;;;5065005;28;20017;-84
2023/10/20 07:20:40;;;;;;;0.20;0.20;;;14.40;99.90;;;;;;5044431;28;20028;-84
2023/10/20 07:23:08;;;;;;;0.30;0.30;;;14.40;99.90;;;;;;5059872;28;20086;-85
2023/10/20 07:25:34;;;;;;;0.45;0.45;;;14.30;99.90;;;;;;5061648;28;20649;-84
2023/10/20 07:28:00;;;;;;;0.40;0.40;;;14.30;99.90;;;;;;5043382;28;20644;-84
2023/10/20 07:30:29;;;;;;;0.20;0.20;;;14.20;99.90;;;;;;5041347;28;20069;-84
2023/10/20 07:32:59;;;;;;;0.47;0.47;;;14.20;99.90;;;;;;5059190;28;20024;-84
2023/10/20 07:35:25;;;;;;;0.20;0.20;;;14.20;99.90;;;;;;5045487;28;20121;-84
2023/10/20 07:37:51;;;;;;;0.20;0.20;;;14.20;99.90;;;;;;5060718;28;20012;-82
2023/10/20 07:40:18;;;;;;;0.40;0.40;;;14.20;99.90;;;;;;5060515;28;20028;-81
2023/10/20 07:42:45;;;;;;;0.65;0.65;;;14.20;99.90;;;;;;5059155;28;20033;-81
2023/10/20 07:45:12;;;;;;;0.50;0.50;;;14.20;99.90;;;;;;5059207;28;20053;-82
2023/10/20 07:47:38;;;;;;;0.63;0.63;;;14.20;99.90;;;;;;5034192;28;20217;-82
2023/10/20 07:50:06;;;;;;;0.20;0.20;;;14.20;99.90;;;;;;5054042;28;20035;-85
2023/10/20 07:52:31;;;;;;;0.40;0.40;;;14.10;99.90;;;;;;5060068;28;20024;-84
2023/10/20 07:54:57;;;;;;;0.10;0.10;;;14.10;99.90;;;;;;5041776;28;20168;-84
2023/10/20 07:57:24;;;;;;;0.20;0.20;;;14.10;99.90;;;;;;5060715;28;20017;-84
2023/10/20 07:59:49;;;;;;;0.20;0.20;;;14.00;99.90;;;;;;5043993;28;20392;-84
2023/10/20 08:02:15;;;;;;;0.20;0.20;;;14.00;99.90;;;;;;5060363;28;20044;-84
2023/10/20 08:04:42;;;;;;;0.20;0.20;;;13.90;99.90;;;;;;5060698;28;20118;-85
2023/10/20 08:07:12;;;;;;;0.20;0.20;;;13.90;99.90;;;;;;5062171;28;20393;-85
2023/10/20 08:09:38;;;;;;;0.30;0.30;;;13.90;99.90;;;;;;5044907;28;20044;-82
2023/10/20 08:12:04;;;;;;;0.20;0.20;;;13.90;99.90;;;;;;5057813;28;20048;-83
2023/10/20 08:14:31;;;;;;;0.20;0.20;;;13.90;99.90;;;;;;5048880;28;20021;-81
2023/10/20 08:16:56;;;;;;;0.60;0.60;;;13.90;99.90;;;;;;5059866;28;20082;-82
2023/10/20 08:19:22;;;;;;;0.10;0.10;;;13.90;99.90;;;;;;5060494;28;20451;-81
2023/10/20 08:21:48;;;;;;;0.20;0.20;;;13.80;99.90;;;;;;5057695;28;20059;-80
2023/10/20 08:24:14;;;;;;;0.35;0.35;;;13.80;99.90;;;;;;5059339;28;20077;-80
2023/10/20 08:26:39;;;;;;;0.13;0.13;;;13.90;99.90;;;;;;5058932;28;20428;-79
2023/10/20 08:29:16;;;;;;;0.10;0.10;;;13.80;99.90;;;;;;5058970;28;20119;-79
2023/10/20 08:31:41;;;;;;;0.20;0.20;;;13.80;99.90;;;;;;5059293;28;20367;-79
2023/10/20 08:34:07;;;;;;;0.40;0.40;;;13.80;99.90;;;;;;5039853;28;20042;-80
2023/10/20 08:36:33;;;;;;;0.20;0.20;;;13.80;99.90;;;;;;5041913;28;20109;-80
2023/10/20 08:39:13;;;;;;;0.20;0.20;;;13.70;99.90;;;;;;5057524;28;20115;-82
2023/10/20 08:41:41;;;;;;;0.25;0.25;;;13.80;99.90;;;;;;5040121;28;20074;-82
2023/10/20 08:44:09;;;;;;;0.20;0.20;;;13.70;99.90;;;;;;5057272;28;20056;-82
2023/10/20 08:46:35;;;;;;;0.10;0.10;;;13.70;99.90;;;;;;5057654;28;20027;-84
2023/10/20 08:49:02;;;;;;;0.20;0.20;;;13.70;99.90;;;;;;5059606;28;20028;-85
2023/10/20 08:51:30;;;;;;;0.40;0.40;;;13.70;99.90;;;;;;5042538;28;20067;-85
2023/10/20 08:53:56;;;;;;;0.20;0.20;;;13.70;99.90;;;;;;5060689;28;20078;-85
2023/10/20 08:56:22;;;;;;;0.20;0.20;;;13.60;99.90;;;;;;5043679;28;20029;-86
2023/10/20 08:58:48;;;;;;;0.30;0.30;;;13.60;99.90;;;;;;5062019;28;20425;-88
2023/10/20 09:01:15;;;;;;;0.20;0.20;;;13.50;99.90;;;;;;5073519;28;20093;-89
2023/10/20 09:03:42;;;;;;;0.30;0.30;;;13.50;99.90;;;;;;5062600;28;20075;-89
2023/10/20 09:06:14;;;;;;;0.20;0.20;;;13.50;99.90;;;;;;5042928;28;20028;-90
2023/10/20 09:08:49;;;;;;;0.47;0.47;;;13.40;99.90;;;;;;5044250;28;20028;-90
2023/10/20 09:11:15;;;;;;;0.30;0.30;;;13.40;99.90;;;;;;5041181;28;20086;-89
2023/10/20 09:13:47;;;;;;;0.60;0.60;;;13.30;99.90;;;;;;5060867;28;20440;-89
2023/10/20 09:16:14;;;;;;;0.35;0.35;;;13.30;99.90;;;;;;5041899;28;20096;-88
2023/10/20 09:18:48;;;;;;;0.20;0.20;;;13.30;99.90;;;;;;5052959;28;20028;-83
2023/10/20 09:21:22;;;;;;;0.22;0.22;;;13.30;99.90;;;;;;5061071;28;20021;-85
2023/10/20 09:24:00;;;;;;;0.40;0.40;;;13.30;99.90;;;;;;5061157;28;20123;-83
2023/10/20 09:26:27;;;;;;;0.40;0.40;;;13.20;99.90;;;;;;5066113;28;21088;-84
2023/10/20 09:28:54;;;;;;;0.20;0.20;;;13.20;99.90;;;;;;5043242;28;20019;-85
2023/10/20 09:31:21;;;;;;;0.35;0.35;;;13.20;99.90;;;;;;5052179;28;20103;-85
2023/10/20 09:33:48;;;;;;;0.20;0.20;;;13.20;99.90;;;;;;5068544;28;20096;-86
2023/10/20 09:36:14;;;;;;;0.30;0.30;;;13.20;99.90;;;;;;5069998;28;20036;-85
2023/10/20 09:38:44;;;;;;;0.30;0.30;;;13.30;99.90;;;;;;5073895;28;20123;-85
2023/10/20 09:41:12;;;;;;;0.20;0.20;;;13.30;99.90;;;;;;5061086;28;20037;-85
2023/10/20 09:44:06;;;;;;;0.20;0.20;;;13.30;99.90;;;;;;5053495;28;20086;-85
2023/10/20 09:46:59;;;;;;;0.30;0.30;;;13.30;99.90;;;;;;5040532;28;20025;-87
2023/10/20 09:49:27;;;;;;;0.47;0.47;;;13.30;99.90;;;;;;5060044;28;20043;-83
2023/10/20 09:51:57;;;;;;;0.40;0.40;;;13.30;99.90;;;;;;5042387;28;20514;-83
2023/10/20 09:54:27;;;;;;;0.30;0.30;;;13.40;99.90;;;;;;5051854;28;20048;-81
2023/10/20 09:56:53;;;;;;;0.20;0.20;;;13.40;99.90;;;;;;5040692;28;20028;-85
2023/10/20 09:59:20;;;;;;;0.30;0.30;;;13.40;99.90;;;;;;5046239;28;20295;-85
2023/10/20 10:01:49;;;;;;;0.32;0.30;;;13.40;99.90;;;;;;5064291;28;20040;-85
2023/10/20 10:04:29;;;;;;;0.20;0.20;;;13.40;99.90;;;;;;5040236;28;20069;-85
2023/10/20 10:06:55;;;;;;;0.30;0.30;;;13.30;99.90;;;;;;5064002;28;20013;-85
2023/10/20 10:09:34;;;;;;;0.20;0.20;;;13.30;99.90;;;;;;5046399;28;20081;-84
2023/10/20 10:12:07;;;;;;;0.20;0.20;;;13.30;99.90;;;;;;5061811;28;20020;-84
2023/10/20 10:14:33;;;;;;;0.30;0.30;;;13.40;99.90;;;;;;5061855;28;20056;-85
2023/10/20 10:17:01;;;;;;;0.20;0.20;;;13.30;99.90;;;;;;5063745;28;20060;-85
2023/10/20 10:19:28;;;;;;;0.20;0.20;;;13.40;99.90;;;;;;5044841;28;20025;-84
2023/10/20 10:22:04;;;;;;;0.30;0.30;;;13.40;99.90;;;;;;5062352;28;20553;-85
2023/10/20 10:24:31;;;;;;;0.20;0.20;;;13.40;99.90;;;;;;5062855;28;20020;-85
2023/10/20 10:27:00;;;;;;;0.20;0.20;;;13.40;99.90;;;;;;5039469;28;20054;-83
2023/10/20 10:29:53;;;;;;;0.40;0.40;;;13.40;99.90;;;;;;5044787;28;20024;-83
2023/10/20 10:32:21;;;;;;;0.30;0.30;;;13.40;99.90;;;;;;5061069;28;20054;-81
2023/10/20 10:34:52;;;;;;;0.40;0.40;;;13.50;99.90;;;;;;5043969;28;20507;-80
2023/10/20 10:37:34;;;;;;;0.43;0.43;;;13.50;99.90;;;;;;5041513;28;20031;-83
2023/10/20 10:40:15;;;;;;;0.30;0.30;;;13.50;99.90;;;;;;5064056;28;20121;-85
2023/10/20 10:42:52;;;;;;;0.30;0.30;;;13.50;99.90;;;;;;5047423;28;20111;-84
2023/10/20 10:45:27;;;;;;;0.40;0.40;;;13.50;99.90;;;;;;5062782;28;20062;-84
2023/10/20 10:48:15;;;;;;;0.30;0.30;;;13.40;99.90;;;;;;5045306;28;20035;-80
2023/10/20 10:50:45;;;;;;;0.30;0.30;;;13.40;99.90;;;;;;5045038;28;20115;-84
2023/10/20 10:53:12;;;;;;;0.30;0.30;;;13.30;99.90;;;;;;5045845;28;20700;-85
2023/10/20 10:55:38;;;;;;;0.50;0.50;;;13.40;99.90;;;;;;5043908;28;20032;-85
2023/10/20 10:58:15;;;;;;;0.30;0.30;;;13.40;99.90;;;;;;5061886;28;20021;-80
2023/10/20 11:00:43;;;;;;;0.30;0.30;;;13.40;99.90;;;;;;5061261;28;20495;-81
2023/10/20 11:03:09;;;;;;;0.30;0.30;;;13.40;99.90;;;;;;5043990;28;20037;-81
2023/10/20 11:05:37;;;;;;;0.20;0.20;;;13.40;99.90;;;;;;5040237;28;20108;-80
2023/10/20 11:08:04;;;;;;;0.30;0.30;;;13.50;99.90;;;;;;5059583;28;20054;-80
2023/10/20 11:10:36;;;;;;;0.20;0.20;;;13.50;99.90;;;;;;5061135;28;20024;-82
2023/10/20 11:13:07;;;;;;;0.20;0.20;;;13.50;99.90;;;;;;5058371;28;20112;-81
2023/10/20 11:15:33;;;;;;;0.20;0.20;;;13.50;99.90;;;;;;5060249;28;20036;-80
2023/10/20 11:18:01;;;;;;;0.20;0.20;;;13.50;99.90;;;;;;5058671;28;20021;-84
2023/10/20 11:20:28;;;;;;;0.20;0.20;;;13.60;99.90;;;;;;5040982;28;20211;-80
2023/10/20 11:22:55;;;;;;;0.20;0.20;;;13.60;99.90;;;;;;5044503;28;20059;-80
2023/10/20 11:25:21;;;;;;;0.20;0.20;;;13.60;99.90;;;;;;5061829;28;20024;-80
2023/10/20 11:27:54;;;;;;;0.20;0.20;;;13.70;99.90;;;;;;5059495;28;20032;-81
2023/10/20 11:30:23;;;;;;;;;;;13.70;99.90;;;;;;5055182;28;20033;-81
2023/10/20 11:32:48;;;;;;;0.20;0.20;;;13.70;99.90;;;;;;5034740;28;20005;-79
2023/10/20 11:35:16;;;;;;;0.38;0.38;;;13.80;99.90;;;;;;5035703;28;20520;-79
2023/10/20 11:37:46;;;;;;;0.10;0.10;;;13.80;99.90;;;;;;5054867;28;20025;-81
2023/10/20 11:40:13;;;;;;;0.22;0.22;;;13.80;99.90;;;;;;5051357;28;20025;-82
2023/10/20 11:42:39;;;;;;;0.10;0.10;;;13.80;99.90;;;;;;5050879;28;20051;-83
2023/10/20 11:45:06;;;;;;;0.20;0.20;;;13.70;99.90;;;;;;5037232;28;20039;-80
2023/10/20 11:47:31;;;;;;;0.10;0.10;;;13.70;99.90;;;;;;5041999;28;20029;-80
2023/10/20 11:49:57;;;;;;;0.10;0.10;;;13.70;99.90;;;;;;5037441;28;20020;-79
2023/10/20 11:52:24;;;;;;;0.30;0.30;;;13.60;99.90;;;;;;5062418;28;20017;-78
2023/10/20 11:54:49;;;;;;;0.10;0.10;;;13.60;99.90;;;;;;5057723;28;20041;-80
2023/10/20 11:57:15;;;;;;;0.17;0.17;;;13.60;99.90;;;;;;5051448;28;20107;-81
2023/10/20 11:59:41;;;;;;;0.15;0.15;;;13.60;99.90;;;;;;5053867;28;20024;-80
2023/10/20 12:02:07;;;;;;;0.10;0.10;;;13.50;99.90;;;;;;5034018;28;20051;-80
2023/10/20 12:04:33;;;;;;;0.10;0.10;;;13.60;99.90;;;;;;5053328;28;20052;-81
2023/10/20 12:06:58;;;;;;;0.10;0.10;;;13.50;99.90;;;;;;5035992;28;20052;-79
2023/10/20 12:09:24;;;;;;;0.15;0.15;;;13.50;99.90;;;;;;5050310;28;20024;-81
2023/10/20 12:11:50;;;;;;;0.10;0.10;;;13.50;99.90;;;;;;5053153;28;20047;-79
2023/10/20 12:14:16;;;;;;;0.10;0.10;;;13.40;99.90;;;;;;5032632;28;20048;-79
2023/10/20 12:16:45;;;;;;;0.10;0.10;;;13.50;99.90;;;;;;5048440;28;20279;-80
2023/10/20 12:19:11;;;;;;;0.10;0.10;;;13.50;99.90;;;;;;5049862;28;20021;-81
2023/10/20 12:21:37;;;;;;;0.70;0.20;;;13.40;99.90;;;;;;5056290;28;20103;-81
2023/10/20 12:24:04;;;;;;;0.10;0.10;;;13.40;99.90;;;;;;5040600;28;20052;-80
2023/10/20 12:26:32;;;;;;;0.10;0.10;;;13.40;99.90;;;;;;5033068;28;20029;-79
2023/10/20 12:28:58;;;;;;;0.10;0.10;;;13.40;99.90;;;;;;5052458;28;20028;-81
2023/10/20 12:31:28;;;;;;;0.10;0.10;;;13.40;99.90;;;;;;5047583;28;20106;-80
2023/10/20 12:33:57;;;;;;;0.10;0.10;;;13.40;99.90;;;;;;5048800;28;20153;-82
2023/10/20 12:36:28;;;;;;;0.20;0.20;;;13.30;99.90;;;;;;5052165;28;20496;-82
2023/10/20 12:38:55;;;;;;;0.10;0.10;;;13.30;99.90;;;;;;5053317;28;20111;-80
2023/10/20 12:41:22;;;;;;;0.10;0.10;;;13.30;99.90;;;;;;5049546;28;20627;-83
2023/10/20 12:43:48;;;;;;;0.10;0.10;;;13.30;99.90;;;;;;5332684;22;20102;-84
2023/10/20 12:46:17;;;;;;;0.20;0.20;;;13.20;99.90;;;;;;5037782;28;20132;-85
2023/10/20 12:48:43;;;;;;;0.15;0.15;;;13.20;99.90;;;;;;5034961;28;20056;-79
2023/10/20 12:51:12;;;;;;;0.20;0.20;;;13.20;99.90;;;;;;5035064;28;20056;-80
2023/10/20 12:53:39;;;;;;;0.10;0.10;;;13.20;99.90;;;;;;5028205;28;20037;-81
2023/10/20 12:56:05;;;;;;;0.20;0.20;;;13.20;99.90;;;;;;5045991;28;20065;-81
2023/10/20 12:58:37;;;;;;;0.15;0.15;;;13.20;99.90;;;;;;5034218;28;20518;-81
2023/10/20 13:01:02;;;;;;;0.20;0.20;;;13.20;99.90;;;;;;5049170;28;20029;-81
2023/10/20 13:03:29;;;;;;;0.28;0.28;;;13.20;99.90;;;;;;5036578;28;20078;-82
2023/10/20 13:05:55;;;;;;;0.20;0.20;;;13.10;99.90;;;;;;5047791;28;20431;-81
2023/10/20 13:08:26;;;;;;;0.30;0.30;;;13.10;99.90;;;;;;5052309;28;20104;-82
2023/10/20 13:10:52;;;;;;;0.30;0.30;;;13.00;99.90;;;;;;5053674;28;20017;-82
2023/10/20 13:13:18;;;;;;;0.20;0.20;;;12.90;99.90;;;;;;5028048;28;20040;-81
2023/10/20 13:15:44;;;;;;;0.20;0.20;;;12.90;99.90;;;;;;5051312;28;20602;-81
2023/10/20 13:18:16;;;;;;;0.30;0.30;;;12.90;99.90;;;;;;5051315;28;20032;-81
2023/10/20 13:20:45;;;;;;;0.22;0.22;;;12.90;99.90;;;;;;5032443;28;20044;-81
2023/10/20 13:23:12;;;;;;;0.25;0.25;;;12.90;99.90;;;;;;5047409;28;20041;-83
2023/10/20 13:25:40;;;;;;;0.20;0.20;;;12.80;99.90;;;;;;5052212;28;20013;-82
2023/10/20 13:28:05;;;;;;;0.30;0.30;;;12.90;99.90;;;;;;5034070;28;20553;-83
2023/10/20 13:30:31;;;;;;;0.32;0.32;;;12.80;99.90;;;;;;5054392;28;20028;-81
2023/10/20 13:32:57;;;;;;;0.20;0.20;;;12.80;99.90;;;;;;5052892;28;20040;-83